Time;durP1;ratioP1;P1;durP2;ratioP2;P2;SDS_P1;SDS_P2;PMS_P1;PMS_P2;Temp;Humidity;BMP_temperature;BMP_pressure;BME280_temperature;BME280_humidity;BME280_pressure;Samples;Min_cycle;Max_cycle;Signal;HPM_P1;HPM_P2
2024/02/24 06:01:06;;;;;;;6.23;3.50;;;;;;;;;;5792993;23;21007;-77
2024/02/24 06:03:31;;;;;;;3.70;2.83;;;;;;;;;;5034059;28;20409;-77
2024/02/24 06:05:57;;;;;;;6.90;3.27;;;;;;;;;;5033130;28;20944;-77
2024/02/24 06:08:23;;;;;;;7.40;2.93;;;;;;;;;;5033364;28;20405;-76
2024/02/24 06:10:49;;;;;;;10.73;4.33;;;;;;;;;;5033870;28;20773;-77
2024/02/24 06:13:15;;;;;;;4.23;2.50;;;;;;;;;;5034036;28;20489;-76
2024/02/24 06:15:41;;;;;;;9.17;3.00;;;;;;;;;;5058556;22;20489;-74
2024/02/24 06:18:07;;;;;;;4.63;2.80;;;;;;;;;;5032842;28;20426;-74
2024/02/24 06:20:33;;;;;;;4.40;2.90;;;;;;;;;;5032701;28;20409;-73
2024/02/24 06:22:59;;;;;;;7.77;3.47;;;;;;;;;;5031434;28;20477;-73
2024/02/24 06:25:25;;;;;;;8.87;3.33;;;;;;;;;;5031268;28;20422;-74
2024/02/24 06:27:51;;;;;;;12.10;3.87;;;;;;;;;;5023809;28;20410;-73
2024/02/24 06:30:17;;;;;;;5.83;3.10;;;;;;;;;;5018404;28;20414;-74
2024/02/24 06:32:43;;;;;;;3.70;3.20;;;;;;;;;;5016477;28;20464;-74
2024/02/24 06:35:09;;;;;;;13.40;4.00;;;;;;;;;;5015697;28;20936;-74
2024/02/24 06:37:35;;;;;;;9.17;3.50;;;;;;;;;;5014131;28;21004;-74
2024/02/24 06:40:02;;;;;;;8.23;3.70;;;;;;;;;;5012929;28;20472;-74
2024/02/24 06:42:28;;;;;;;7.37;3.90;;;;;;;;;;5012811;28;20414;-73
2024/02/24 06:44:54;;;;;;;6.33;3.03;;;;;;;;;;5012805;28;20521;-73
2024/02/24 06:47:20;;;;;;;12.83;3.57;;;;;;;;;;5013415;28;20409;-74
2024/02/24 06:49:46;;;;;;;10.00;3.10;;;;;;;;;;5016377;28;20410;-74
2024/02/24 06:52:12;;;;;;;7.47;3.10;;;;;;;;;;5016411;28;20453;-74
2024/02/24 06:54:41;;;;;;;7.03;3.60;;;;;;;;;;5016260;28;20453;-74
2024/02/24 06:57:07;;;;;;;9.20;3.17;;;;;;;;;;5017389;28;20418;-74
2024/02/24 06:59:33;;;;;;;6.93;3.87;;;;;;;;;;5015395;28;20421;-73
2024/02/24 07:01:59;;;;;;;5.60;3.07;;;;;;;;;;5017422;28;20424;-74
2024/02/24 07:04:25;;;;;;;6.33;3.20;;;;;;;;;;5017742;28;20441;-74
2024/02/24 07:06:51;;;;;;;7.60;3.43;;;;;;;;;;5021109;28;20473;-74
2024/02/24 07:09:17;;;;;;;8.87;2.97;;;;;;;;;;5024360;28;20421;-74
2024/02/24 07:11:43;;;;;;;8.50;3.67;;;;;;;;;;5015864;28;20464;-72
2024/02/24 07:14:09;;;;;;;6.87;3.30;;;;;;;;;;5014820;28;20414;-74
2024/02/24 07:16:35;;;;;;;6.13;2.53;;;;;;;;;;5015171;28;20452;-74
2024/02/24 07:19:01;;;;;;;5.93;2.60;;;;;;;;;;5015468;28;20418;-74
2024/02/24 07:21:26;;;;;;;4.80;2.87;;;;;;;;;;5016447;28;20418;-74
2024/02/24 07:23:53;;;;;;;5.43;2.70;;;;;;;;;;5015971;28;20418;-74
2024/02/24 07:26:20;;;;;;;6.00;2.50;;;;;;;;;;5016516;28;20421;-75
2024/02/24 07:28:46;;;;;;;3.50;2.40;;;;;;;;;;5014764;28;20677;-73
2024/02/24 07:31:12;;;;;;;7.97;2.73;;;;;;;;;;4998884;28;20492;-74
2024/02/24 07:33:38;;;;;;;2.63;2.40;;;;;;;;;;5008667;28;20414;-74
2024/02/24 07:36:04;;;;;;;4.23;2.43;;;;;;;;;;5005153;28;20429;-74
2024/02/24 07:38:30;;;;;;;7.43;2.77;;;;;;;;;;4999941;28;20411;-75
2024/02/24 07:40:56;;;;;;;3.67;2.50;;;;;;;;;;4996420;28;20786;-73
2024/02/24 07:43:22;;;;;;;2.73;2.00;;;;;;;;;;5003641;28;20415;-73
2024/02/24 07:45:48;;;;;;;5.43;2.30;;;;;;;;;;5003614;28;20489;-74
2024/02/24 07:48:14;;;;;;;3.03;1.80;;;;;;;;;;5001963;28;20407;-74
2024/02/24 07:50:40;;;;;;;2.20;1.87;;;;;;;;;;5000477;28;20502;-74
2024/02/24 07:53:07;;;;;;;1.20;1.10;;;;;;;;;;4996916;28;20872;-74
2024/02/24 07:55:33;;;;;;;1.07;0.97;;;;;;;;;;4996297;28;20910;-74
2024/02/24 07:57:59;;;;;;;1.13;0.97;;;;;;;;;;4995599;28;20426;-74
2024/02/24 08:00:25;;;;;;;4.63;1.10;;;;;;;;;;4996030;28;20418;-74
2024/02/24 08:02:51;;;;;;;1.70;1.00;;;;;;;;;;4994333;28;20419;-72
2024/02/24 08:05:18;;;;;;;1.10;1.00;;;;;;;;;;4995715;28;20790;-73
2024/02/24 08:07:44;;;;;;;0.97;0.87;;;;;;;;;;4994564;28;20430;-73
2024/02/24 08:10:10;;;;;;;1.10;0.90;;;;;;;;;;4995739;28;20407;-74
2024/02/24 08:12:36;;;;;;;0.90;0.80;;;;;;;;;;4995094;28;20462;-75
2024/02/24 08:15:02;;;;;;;1.57;1.00;;;;;;;;;;4994950;28;20479;-74
2024/02/24 08:17:28;;;;;;;1.03;0.80;;;;;;;;;;4995521;28;20497;-74
2024/02/24 08:19:54;;;;;;;0.97;0.87;;;;;;;;;;4995581;28;20886;-74
2024/02/24 08:22:20;;;;;;;1.00;0.90;;;;;;;;;;4995301;28;20948;-74
2024/02/24 08:24:46;;;;;;;2.17;1.10;;;;;;;;;;4997437;28;20438;-74
2024/02/24 08:27:12;;;;;;;2.03;0.90;;;;;;;;;;4996253;28;20411;-74
2024/02/24 08:29:38;;;;;;;1.40;1.40;;;;;;;;;;4995284;28;20415;-74
2024/02/24 08:32:04;;;;;;;0.90;0.90;;;;;;;;;;4994891;28;20552;-74
2024/02/24 08:34:30;;;;;;;3.60;1.43;;;;;;;;;;4994668;28;20932;-74
2024/02/24 08:36:56;;;;;;;0.90;0.80;;;;;;;;;;4994747;28;20407;-74
2024/02/24 08:39:22;;;;;;;1.10;1.00;;;;;;;;;;4995352;28;20414;-74
2024/02/24 08:41:48;;;;;;;0.87;0.80;;;;;;;;;;4993444;28;20898;-74
2024/02/24 08:44:14;;;;;;;1.17;0.80;;;;;;;;;;4994388;28;20498;-74
2024/02/24 08:46:39;;;;;;;0.97;0.93;;;;;;;;;;4994454;28;20855;-75
2024/02/24 08:49:05;;;;;;;1.00;0.90;;;;;;;;;;4994743;28;20406;-74
2024/02/24 08:51:31;;;;;;;1.20;1.10;;;;;;;;;;4992908;28;20419;-74
2024/02/24 08:53:57;;;;;;;1.60;1.13;;;;;;;;;;4994870;28;20951;-74
2024/02/24 08:56:24;;;;;;;1.33;1.00;;;;;;;;;;4994304;28;20431;-74
2024/02/24 08:58:51;;;;;;;1.70;1.03;;;;;;;;;;4993510;28;20901;-74
2024/02/24 09:01:18;;;;;;;1.70;0.80;;;;;;;;;;5007846;28;20417;-75
2024/02/24 09:03:44;;;;;;;2.07;0.90;;;;;;;;;;4996778;28;20462;-75
2024/02/24 09:06:10;;;;;;;1.53;1.00;;;;;;;;;;4995234;28;20431;-73
2024/02/24 09:08:37;;;;;;;1.70;1.30;;;;;;;;;;4995912;28;20418;-74
2024/02/24 09:11:03;;;;;;;3.13;1.20;;;;;;;;;;4994198;28;20407;-74
2024/02/24 09:13:30;;;;;;;1.03;0.87;;;;;;;;;;4994706;28;20581;-74
2024/02/24 09:15:55;;;;;;;1.23;0.90;;;;;;;;;;4995749;28;20539;-73
2024/02/24 09:18:21;;;;;;;1.10;1.00;;;;;;;;;;4996413;28;20841;-73
2024/02/24 09:20:47;;;;;;;1.70;1.20;;;;;;;;;;5014894;28;20832;-73
2024/02/24 09:23:13;;;;;;;0.90;0.80;;;;;;;;;;5014583;28;20445;-72
2024/02/24 09:25:39;;;;;;;1.53;0.87;;;;;;;;;;5014151;28;20438;-74
2024/02/24 09:28:06;;;;;;;1.00;0.90;;;;;;;;;;5016899;28;20425;-73
2024/02/24 09:30:32;;;;;;;1.67;1.23;;;;;;;;;;5016557;28;20971;-73
2024/02/24 09:32:58;;;;;;;1.00;0.90;;;;;;;;;;5020005;28;20545;-75
2024/02/24 09:35:24;;;;;;;4.50;1.93;;;;;;;;;;5036396;28;20437;-74
2024/02/24 09:37:50;;;;;;;1.13;0.93;;;;;;;;;;5036300;28;20517;-75
2024/02/24 09:40:17;;;;;;;1.13;0.90;;;;;;;;;;5037336;28;20414;-74
2024/02/24 09:42:43;;;;;;;2.20;1.33;;;;;;;;;;5037077;28;20414;-74
2024/02/24 09:45:13;;;;;;;3.30;0.80;;;;;;;;;;5019891;28;20494;-74
2024/02/24 09:47:43;;;;;;;2.57;1.00;;;;;;;;;;5006399;28;20477;-74
2024/02/24 09:50:10;;;;;;;1.50;1.10;;;;;;;;;;5013285;28;20464;-74
2024/02/24 09:52:38;;;;;;;1.23;1.00;;;;;;;;;;5012813;28;20991;-75
2024/02/24 09:55:04;;;;;;;1.17;0.97;;;;;;;;;;5015063;28;20429;-75
2024/02/24 09:57:30;;;;;;;1.03;0.93;;;;;;;;;;5019670;28;20433;-74
2024/02/24 09:59:57;;;;;;;1.00;0.90;;;;;;;;;;5020070;28;20472;-73
2024/02/24 10:02:23;;;;;;;2.27;1.40;;;;;;;;;;5016045;28;20420;-73
2024/02/24 10:04:50;;;;;;;1.00;0.90;;;;;;;;;;5011736;28;20528;-74
2024/02/24 10:07:16;;;;;;;0.73;0.67;;;;;;;;;;5012309;28;20425;-74
2024/02/24 10:09:42;;;;;;;1.37;1.00;;;;;;;;;;5012111;28;20516;-73
2024/02/24 10:12:08;;;;;;;1.80;1.00;;;;;;;;;;5012689;28;20461;-73
2024/02/24 10:14:34;;;;;;;1.00;0.93;;;;;;;;;;5012725;28;20453;-74
2024/02/24 10:17:00;;;;;;;0.97;0.87;;;;;;;;;;5001957;28;20514;-75
2024/02/24 10:19:28;;;;;;;1.13;0.80;;;;;;;;;;4993309;28;20439;-75
2024/02/24 10:21:54;;;;;;;1.23;0.83;;;;;;;;;;4995082;28;20422;-76
2024/02/24 10:24:20;;;;;;;1.73;1.00;;;;;;;;;;4997133;28;20472;-75
2024/02/24 10:26:50;;;;;;;0.80;0.70;;;;;;;;;;5001402;28;20461;-76
2024/02/24 10:29:16;;;;;;;0.83;0.80;;;;;;;;;;5013092;28;20557;-75
2024/02/24 10:31:43;;;;;;;1.90;0.97;;;;;;;;;;5016260;28;20560;-74
2024/02/24 10:34:09;;;;;;;0.83;0.77;;;;;;;;;;5016628;28;20421;-73
2024/02/24 10:36:35;;;;;;;2.50;0.80;;;;;;;;;;5016595;28;20414;-75
2024/02/24 10:39:01;;;;;;;0.60;0.60;;;;;;;;;;5016776;28;20767;-74
2024/02/24 10:41:27;;;;;;;0.93;0.90;;;;;;;;;;5015093;28;20457;-74
2024/02/24 10:43:54;;;;;;;1.23;0.87;;;;;;;;;;5016520;28;20498;-74
2024/02/24 10:46:20;;;;;;;1.33;1.00;;;;;;;;;;5016282;28;20430;-75
2024/02/24 10:48:45;;;;;;;0.80;0.77;;;;;;;;;;5026111;28;20468;-73
2024/02/24 10:51:13;;;;;;;1.00;0.90;;;;;;;;;;5028112;28;20413;-75
2024/02/24 10:53:40;;;;;;;2.70;1.03;;;;;;;;;;5016600;28;20556;-73
2024/02/24 10:56:06;;;;;;;0.77;0.77;;;;;;;;;;5014945;28;20525;-74
2024/02/24 10:58:35;;;;;;;1.13;0.80;;;;;;;;;;5016166;28;20410;-75
2024/02/24 11:01:01;;;;;;;1.70;0.80;;;;;;;;;;5016518;28;20497;-74
2024/02/24 11:03:27;;;;;;;1.63;0.90;;;;;;;;;;5016034;28;20802;-75
2024/02/24 11:05:53;;;;;;;0.93;0.77;;;;;;;;;;5015987;28;20445;-74
2024/02/24 11:08:51;;;;;;;1.17;1.10;;;;;;;;;;5014516;28;20425;-74
2024/02/24 11:11:17;;;;;;;1.03;0.80;;;;;;;;;;5007884;28;20513;-75
2024/02/24 11:13:47;;;;;;;1.33;0.90;;;;;;;;;;5015032;28;21040;-75
2024/02/24 11:16:13;;;;;;;2.90;1.93;;;;;;;;;;5015697;28;20455;-74
2024/02/24 11:18:49;;;;;;;1.77;1.53;;;;;;;;;;5014481;28;20460;-75
2024/02/24 11:21:18;;;;;;;1.73;1.37;;;;;;;;;;5016075;28;20777;-77
2024/02/24 11:23:47;;;;;;;3.53;1.00;;;;;;;;;;5016049;28;20805;-76
2024/02/24 11:26:16;;;;;;;1.50;0.77;;;;;;;;;;5014946;28;20430;-73
2024/02/24 11:28:59;;;;;;;0.67;0.57;;;;;;;;;;5015321;28;20413;-73
2024/02/24 11:31:29;;;;;;;1.03;1.00;;;;;;;;;;5014318;28;20484;-74
2024/02/24 11:34:13;;;;;;;1.47;1.37;;;;;;;;;;5014905;28;20442;-74
2024/02/24 11:36:40;;;;;;;1.47;1.13;;;;;;;;;;5014134;28;20401;-74
2024/02/24 11:39:12;;;;;;;1.20;1.10;;;;;;;;;;5016060;28;20502;-74
2024/02/24 11:41:40;;;;;;;0.97;0.97;;;;;;;;;;5015863;28;20472;-74
2024/02/24 11:44:07;;;;;;;1.60;1.20;;;;;;;;;;5015267;28;20395;-75
2024/02/24 11:46:33;;;;;;;0.90;0.80;;;;;;;;;;5014602;28;20492;-74
2024/02/24 11:49:01;;;;;;;2.20;0.90;;;;;;;;;;5015896;28;20409;-73
2024/02/24 11:51:35;;;;;;;0.93;0.83;;;;;;;;;;5017450;28;20773;-74
2024/02/24 11:54:03;;;;;;;1.60;0.80;;;;;;;;;;5014463;28;20513;-73
2024/02/24 11:56:30;;;;;;;0.70;0.60;;;;;;;;;;5014487;28;20414;-74
2024/02/24 11:58:59;;;;;;;1.27;0.80;;;;;;;;;;5015741;28;20953;-75
2024/02/24 12:01:31;;;;;;;3.80;1.10;;;;;;;;;;5015738;28;20412;-73
2024/02/24 12:03:59;;;;;;;1.10;0.87;;;;;;;;;;5029285;28;20566;-73
2024/02/24 12:06:30;;;;;;;1.40;1.30;;;;;;;;;;5026834;28;20414;-74
2024/02/24 12:09:01;;;;;;;0.73;0.70;;;;;;;;;;5017405;28;20483;-74
2024/02/24 12:11:28;;;;;;;1.37;1.00;;;;;;;;;;5017442;28;20416;-74
2024/02/24 12:13:56;;;;;;;1.13;1.07;;;;;;;;;;5016118;28;20467;-73
2024/02/24 12:16:23;;;;;;;1.87;1.10;;;;;;;;;;5054428;23;20531;-75
2024/02/24 12:18:49;;;;;;;3.70;1.33;;;;;;;;;;5033582;28;20420;-75
2024/02/24 12:21:16;;;;;;;1.73;1.17;;;;;;;;;;5033567;28;20936;-75
2024/02/24 12:23:45;;;;;;;2.90;1.27;;;;;;;;;;5033645;28;20501;-75
2024/02/24 12:26:15;;;;;;;1.37;0.93;;;;;;;;;;5033633;28;20432;-75
2024/02/24 12:28:45;;;;;;;0.70;0.60;;;;;;;;;;5033235;28;20409;-74
2024/02/24 12:31:13;;;;;;;2.40;1.03;;;;;;;;;;5037536;28;20515;-74
2024/02/24 12:33:39;;;;;;;1.07;0.90;;;;;;;;;;5034953;28;20461;-75
2024/02/24 12:36:06;;;;;;;1.97;0.90;;;;;;;;;;5033794;28;20425;-75
2024/02/24 12:38:32;;;;;;;1.97;1.00;;;;;;;;;;5033655;28;20463;-74
2024/02/24 12:40:58;;;;;;;1.37;1.03;;;;;;;;;;5033024;28;20908;-75
2024/02/24 12:43:24;;;;;;;1.00;0.90;;;;;;;;;;5033202;28;20521;-75
2024/02/24 12:45:51;;;;;;;1.17;0.80;;;;;;;;;;5030614;28;20433;-75
2024/02/24 12:48:18;;;;;;;0.90;0.80;;;;;;;;;;5033067;28;20448;-74
2024/02/24 12:50:47;;;;;;;3.00;1.33;;;;;;;;;;5032705;28;20439;-76
2024/02/24 12:53:13;;;;;;;3.73;1.00;;;;;;;;;;5032435;28;20460;-76
2024/02/24 12:55:40;;;;;;;2.97;1.80;;;;;;;;;;5032491;28;20519;-76
2024/02/24 12:58:06;;;;;;;1.73;1.33;;;;;;;;;;5032910;28;20420;-75
2024/02/24 13:00:32;;;;;;;1.07;0.97;;;;;;;;;;5032655;28;20413;-75
2024/02/24 13:03:01;;;;;;;2.20;1.10;;;;;;;;;;5032183;28;20409;-76
2024/02/24 13:05:27;;;;;;;2.00;0.90;;;;;;;;;;5032330;28;20559;-75
2024/02/24 13:07:54;;;;;;;7.43;1.50;;;;;;;;;;5033518;28;20463;-76
2024/02/24 13:10:20;;;;;;;0.80;0.80;;;;;;;;;;5032600;28;20417;-75
2024/02/24 13:12:46;;;;;;;1.40;0.97;;;;;;;;;;5032157;28;20853;-76
2024/02/24 13:15:12;;;;;;;1.07;1.00;;;;;;;;;;5031963;28;20456;-76
2024/02/24 13:17:38;;;;;;;1.77;0.90;;;;;;;;;;5031328;28;20453;-75
2024/02/24 13:20:04;;;;;;;1.20;0.90;;;;;;;;;;5032397;28;20447;-76
2024/02/24 13:22:30;;;;;;;0.80;0.80;;;;;;;;;;5031847;28;20447;-76
2024/02/24 13:24:56;;;;;;;1.13;0.90;;;;;;;;;;5032000;28;20429;-76
2024/02/24 13:27:22;;;;;;;3.37;0.90;;;;;;;;;;5032355;28;20501;-75
2024/02/24 13:29:48;;;;;;;1.10;1.00;;;;;;;;;;5031054;28;20422;-75
2024/02/24 13:32:14;;;;;;;1.83;1.17;;;;;;;;;;5031848;28;20452;-75
2024/02/24 13:34:40;;;;;;;1.23;0.80;;;;;;;;;;5032361;28;20808;-76
2024/02/24 13:37:06;;;;;;;0.87;0.80;;;;;;;;;;5030918;28;20416;-75
2024/02/24 13:39:32;;;;;;;2.20;1.70;;;;;;;;;;5032039;28;20570;-75
2024/02/24 13:41:58;;;;;;;1.17;1.00;;;;;;;;;;5031991;28;20491;-76
2024/02/24 13:44:24;;;;;;;1.00;0.90;;;;;;;;;;5031943;28;20449;-76
2024/02/24 13:46:52;;;;;;;2.50;1.07;;;;;;;;;;5031838;28;20520;-76
2024/02/24 13:49:18;;;;;;;0.87;0.77;;;;;;;;;;5031969;28;20496;-76
2024/02/24 13:51:45;;;;;;;1.60;0.97;;;;;;;;;;5031291;28;20456;-76
2024/02/24 13:54:11;;;;;;;1.77;1.03;;;;;;;;;;5031727;28;20829;-75
2024/02/24 13:56:37;;;;;;;2.73;1.17;;;;;;;;;;5031548;28;20428;-75
2024/02/24 13:59:03;;;;;;;1.80;1.30;;;;;;;;;;5031861;28;20437;-75
2024/02/24 14:01:30;;;;;;;2.77;1.03;;;;;;;;;;5031832;28;20904;-76
2024/02/24 14:03:56;;;;;;;2.20;1.10;;;;;;;;;;5031649;28;20745;-75
2024/02/24 14:06:23;;;;;;;1.50;1.10;;;;;;;;;;5031557;28;20436;-75
2024/02/24 14:08:49;;;;;;;1.10;1.00;;;;;;;;;;5030630;28;20425;-75
2024/02/24 14:11:14;;;;;;;1.23;1.03;;;;;;;;;;5031892;28;20828;-75
2024/02/24 14:13:40;;;;;;;1.80;0.90;;;;;;;;;;5031390;28;20461;-75
2024/02/24 14:16:07;;;;;;;3.23;1.00;;;;;;;;;;5031425;28;20445;-75
2024/02/24 14:18:35;;;;;;;2.67;1.10;;;;;;;;;;5031724;28;20471;-75
2024/02/24 14:21:01;;;;;;;1.40;0.90;;;;;;;;;;5030431;28;20472;-75
2024/02/24 14:23:27;;;;;;;1.07;0.90;;;;;;;;;;5031425;28;20508;-75
2024/02/24 14:25:53;;;;;;;1.23;1.07;;;;;;;;;;5031571;28;20810;-75
2024/02/24 14:28:19;;;;;;;0.80;0.70;;;;;;;;;;5031777;28;20409;-76
2024/02/24 14:30:45;;;;;;;1.03;0.90;;;;;;;;;;5031812;28;20871;-76
2024/02/24 14:33:11;;;;;;;1.70;1.00;;;;;;;;;;5031412;28;20969;-76
2024/02/24 14:35:38;;;;;;;1.73;1.10;;;;;;;;;;5031924;28;20431;-75
2024/02/24 14:38:07;;;;;;;1.70;1.13;;;;;;;;;;5032194;28;20417;-76
2024/02/24 14:40:33;;;;;;;1.40;1.30;;;;;;;;;;5031845;28;20416;-75
2024/02/24 14:43:00;;;;;;;1.20;1.00;;;;;;;;;;5031856;28;20409;-75
2024/02/24 14:45:26;;;;;;;1.07;1.00;;;;;;;;;;5031867;28;20429;-76
2024/02/24 14:47:54;;;;;;;2.07;1.00;;;;;;;;;;5032244;28;20413;-75
2024/02/24 14:50:20;;;;;;;1.40;1.20;;;;;;;;;;5032028;28;20405;-76
2024/02/24 14:52:46;;;;;;;1.27;1.17;;;;;;;;;;5031703;28;20567;-76
2024/02/24 14:55:12;;;;;;;3.03;1.90;;;;;;;;;;5031702;28;20448;-76
2024/02/24 14:57:38;;;;;;;2.30;1.60;;;;;;;;;;5031556;28;20409;-75
2024/02/24 15:00:11;;;;;;;1.27;0.93;;;;;;;;;;5031449;28;20515;-75
2024/02/24 15:02:38;;;;;;;1.47;1.30;;;;;;;;;;5031386;28;20500;-75
2024/02/24 15:05:04;;;;;;;1.60;1.30;;;;;;;;;;5031259;28;20437;-75
2024/02/24 15:07:30;;;;;;;1.20;1.10;;;;;;;;;;5031494;28;20417;-75
2024/02/24 15:09:56;;;;;;;0.97;0.90;;;;;;;;;;5034498;28;20423;-75
2024/02/24 15:12:22;;;;;;;2.07;1.33;;;;;;;;;;5033298;28;20457;-76
2024/02/24 15:14:48;;;;;;;2.90;1.37;;;;;;;;;;5034612;28;20441;-76
2024/02/24 15:17:14;;;;;;;3.30;1.40;;;;;;;;;;5034924;28;20412;-76
2024/02/24 15:19:44;;;;;;;2.83;2.10;;;;;;;;;;5034903;28;20459;-74
2024/02/24 15:22:10;;;;;;;1.53;1.47;;;;;;;;;;5034699;28;20794;-75
2024/02/24 15:24:36;;;;;;;3.13;1.70;;;;;;;;;;5034649;28;20562;-74
2024/02/24 15:27:02;;;;;;;4.03;1.40;;;;;;;;;;5033161;28;20479;-74
2024/02/24 15:29:29;;;;;;;1.67;1.57;;;;;;;;;;5035024;28;20420;-75
2024/02/24 15:31:55;;;;;;;13.10;5.83;;;;;;;;;;5034321;28;20551;-75
2024/02/24 15:34:21;;;;;;;2.63;1.90;;;;;;;;;;5034874;28;20501;-75
2024/02/24 15:36:47;;;;;;;4.57;3.07;;;;;;;;;;5034630;28;20753;-75
2024/02/24 15:39:12;;;;;;;3.00;2.10;;;;;;;;;;5034713;28;20405;-75
2024/02/24 15:41:38;;;;;;;2.80;1.83;;;;;;;;;;5035450;28;20492;-75
2024/02/24 15:44:06;;;;;;;1.57;1.30;;;;;;;;;;5035057;28;20410;-75
2024/02/24 15:46:32;;;;;;;3.30;1.90;;;;;;;;;;5043493;28;20513;-75
2024/02/24 15:48:58;;;;;;;4.20;2.27;;;;;;;;;;5035469;28;20409;-75
2024/02/24 15:51:24;;;;;;;2.67;1.60;;;;;;;;;;5033556;28;20417;-75
2024/02/24 15:53:50;;;;;;;1.67;1.20;;;;;;;;;;5034043;28;20460;-75
2024/02/24 15:56:18;;;;;;;1.00;0.90;;;;;;;;;;5034051;28;20439;-75
2024/02/24 15:58:45;;;;;;;1.17;1.10;;;;;;;;;;5034192;28;20409;-75
2024/02/24 16:01:10;;;;;;;3.77;2.20;;;;;;;;;;5032633;28;20413;-75
2024/02/24 16:03:39;;;;;;;2.60;1.73;;;;;;;;;;5032888;28;20948;-76
2024/02/24 16:06:06;;;;;;;9.57;3.10;;;;;;;;;;5034038;28;20433;-76
2024/02/24 16:08:32;;;;;;;3.13;2.07;;;;;;;;;;5034252;28;20500;-76
2024/02/24 16:10:58;;;;;;;3.50;2.07;;;;;;;;;;5033973;28;20500;-76
2024/02/24 16:13:24;;;;;;;4.20;2.57;;;;;;;;;;5033650;28;20460;-76
2024/02/24 16:15:50;;;;;;;6.43;2.93;;;;;;;;;;5032299;28;20464;-76
2024/02/24 16:18:16;;;;;;;5.87;2.50;;;;;;;;;;5032580;28;20413;-76
2024/02/24 16:20:42;;;;;;;4.90;2.23;;;;;;;;;;5032223;28;20413;-75
2024/02/24 16:23:09;;;;;;;4.83;2.60;;;;;;;;;;5033823;28;20417;-76
2024/02/24 16:25:35;;;;;;;3.60;2.17;;;;;;;;;;5034359;28;20939;-75
2024/02/24 16:28:01;;;;;;;5.40;2.37;;;;;;;;;;5034109;28;20413;-76
2024/02/24 16:30:27;;;;;;;2.10;1.40;;;;;;;;;;5033539;28;20834;-75
2024/02/24 16:32:53;;;;;;;1.97;1.50;;;;;;;;;;5033425;28;20503;-75
2024/02/24 16:35:18;;;;;;;1.80;1.13;;;;;;;;;;5033912;28;20425;-75
2024/02/24 16:37:44;;;;;;;2.60;1.30;;;;;;;;;;5033456;28;20791;-75
2024/02/24 16:40:11;;;;;;;2.47;1.20;;;;;;;;;;5033454;28;20408;-75
2024/02/24 16:42:37;;;;;;;1.53;1.30;;;;;;;;;;5032113;28;20453;-75
2024/02/24 16:45:05;;;;;;;2.30;1.30;;;;;;;;;;5032146;28;20445;-75
2024/02/24 16:47:31;;;;;;;1.40;1.30;;;;;;;;;;5033550;28;20413;-74
2024/02/24 16:49:58;;;;;;;3.13;1.30;;;;;;;;;;5033234;28;20897;-75
2024/02/24 16:52:24;;;;;;;1.80;1.30;;;;;;;;;;5032888;28;20476;-75
2024/02/24 16:54:50;;;;;;;2.33;1.30;;;;;;;;;;5032938;28;20936;-75
2024/02/24 16:57:16;;;;;;;1.90;1.40;;;;;;;;;;5032468;28;20404;-75
2024/02/24 16:59:42;;;;;;;2.07;1.60;;;;;;;;;;5032921;28;20448;-74
2024/02/24 17:02:08;;;;;;;1.60;1.10;;;;;;;;;;5032896;28;20413;-75
2024/02/24 17:04:36;;;;;;;1.90;1.57;;;;;;;;;;5032827;28;20791;-75
2024/02/24 17:07:02;;;;;;;3.00;1.47;;;;;;;;;;5033283;28;20417;-76
2024/02/24 17:09:28;;;;;;;2.90;1.30;;;;;;;;;;5032675;28;20475;-75
2024/02/24 17:11:55;;;;;;;1.37;1.33;;;;;;;;;;5032230;28;20477;-75
2024/02/24 17:14:21;;;;;;;1.50;1.40;;;;;;;;;;5031119;28;20946;-75
2024/02/24 17:16:47;;;;;;;4.57;1.60;;;;;;;;;;5032810;28;20402;-76
2024/02/24 17:19:13;;;;;;;2.00;1.77;;;;;;;;;;5032767;28;20459;-75
2024/02/24 17:21:39;;;;;;;2.50;1.40;;;;;;;;;;5032671;28;20418;-75
2024/02/24 17:24:05;;;;;;;2.20;1.40;;;;;;;;;;5032383;28;20420;-76
2024/02/24 17:26:31;;;;;;;2.70;1.57;;;;;;;;;;5034720;28;20473;-77
2024/02/24 17:28:57;;;;;;;1.60;1.50;;;;;;;;;;5035326;28;20428;-75
2024/02/24 17:31:26;;;;;;;1.60;1.60;;;;;;;;;;5034999;28;20479;-77
2024/02/24 17:33:52;;;;;;;3.30;1.97;;;;;;;;;;5033070;28;20460;-76
2024/02/24 17:36:19;;;;;;;2.80;1.50;;;;;;;;;;5033078;28;20425;-77
2024/02/24 17:38:45;;;;;;;5.33;1.80;;;;;;;;;;5033436;28;20401;-77
2024/02/24 17:41:11;;;;;;;2.00;1.47;;;;;;;;;;5034494;28;20416;-77
2024/02/24 17:43:37;;;;;;;2.40;1.90;;;;;;;;;;5035398;28;20441;-77
2024/02/24 17:46:03;;;;;;;4.90;2.30;;;;;;;;;;5035940;28;20432;-77
2024/02/24 17:48:29;;;;;;;1.70;1.60;;;;;;;;;;5035577;28;20432;-77
2024/02/24 17:50:55;;;;;;;8.10;2.33;;;;;;;;;;5036557;28;20413;-77
2024/02/24 17:53:22;;;;;;;3.67;2.07;;;;;;;;;;5036490;28;20457;-77
2024/02/24 17:55:48;;;;;;;3.13;2.20;;;;;;;;;;5035488;28;20459;-77
2024/02/24 17:58:14;;;;;;;4.50;1.97;;;;;;;;;;5035309;28;20467;-77
2024/02/24 18:00:41;;;;;;;1.70;1.43;;;;;;;;;;5035115;28;20821;-77
2024/02/24 18:03:07;;;;;;;1.70;1.60;;;;;;;;;;5034127;28;20413;-76
2024/02/24 18:05:33;;;;;;;2.00;1.53;;;;;;;;;;5033856;28;20982;-77
2024/02/24 18:07:59;;;;;;;5.47;2.73;;;;;;;;;;5033747;28;20827;-75
2024/02/24 18:10:25;;;;;;;5.63;1.90;;;;;;;;;;5033652;28;20425;-76
2024/02/24 18:12:54;;;;;;;4.60;2.03;;;;;;;;;;5034225;28;20503;-78
2024/02/24 18:15:20;;;;;;;1.83;1.73;;;;;;;;;;5458807;22;20485;-74
2024/02/24 18:17:46;;;;;;;2.30;2.07;;;;;;;;;;5010835;28;20933;-76
2024/02/24 18:20:12;;;;;;;2.90;1.77;;;;;;;;;;5012189;28;20398;-75
2024/02/24 18:22:39;;;;;;;2.53;1.60;;;;;;;;;;5012132;28;20409;-76
2024/02/24 18:25:07;;;;;;;3.17;2.00;;;;;;;;;;5012003;28;20921;-75
2024/02/24 18:27:33;;;;;;;3.27;2.13;;;;;;;;;;5010576;28;20410;-75
2024/02/24 18:29:59;;;;;;;7.07;2.20;;;;;;;;;;5008952;28;20433;-76
2024/02/24 18:32:25;;;;;;;2.90;1.90;;;;;;;;;;5001068;28;20840;-77
2024/02/24 18:34:51;;;;;;;2.37;1.80;;;;;;;;;;5002602;28;20875;-77
2024/02/24 18:37:18;;;;;;;4.40;2.30;;;;;;;;;;5005003;28;20538;-77
2024/02/24 18:39:44;;;;;;;5.10;1.90;;;;;;;;;;5005023;28;20441;-76
2024/02/24 18:42:10;;;;;;;4.30;2.40;;;;;;;;;;5011504;28;20422;-76
2024/02/24 18:44:36;;;;;;;7.30;2.43;;;;;;;;;;4998136;28;20430;-76
2024/02/24 18:47:02;;;;;;;3.97;2.60;;;;;;;;;;4996788;28;20410;-76
2024/02/24 18:49:31;;;;;;;6.77;3.83;;;;;;;;;;5004428;28;20505;-76
2024/02/24 18:51:58;;;;;;;4.83;2.87;;;;;;;;;;4994728;28;20422;-76
2024/02/24 18:54:26;;;;;;;5.07;2.90;;;;;;;;;;4996208;28;20446;-76
2024/02/24 18:56:53;;;;;;;3.20;2.40;;;;;;;;;;5013785;28;20437;-76
2024/02/24 18:59:19;;;;;;;4.10;2.90;;;;;;;;;;5015451;28;20421;-76
2024/02/24 19:01:45;;;;;;;3.00;2.37;;;;;;;;;;5008225;28;20422;-76
2024/02/24 19:04:11;;;;;;;3.90;3.20;;;;;;;;;;4996160;28;20510;-76
2024/02/24 19:06:37;;;;;;;4.30;3.63;;;;;;;;;;4996642;28;20438;-76
2024/02/24 19:09:03;;;;;;;7.10;3.63;;;;;;;;;;5002389;28;20426;-77
2024/02/24 19:11:30;;;;;;;2.83;2.40;;;;;;;;;;4997565;28;20525;-76
2024/02/24 19:13:56;;;;;;;4.60;3.10;;;;;;;;;;5013109;28;20476;-77
2024/02/24 19:16:22;;;;;;;5.00;3.57;;;;;;;;;;4999880;28;20473;-76
2024/02/24 19:18:48;;;;;;;4.43;3.10;;;;;;;;;;5011041;28;20427;-76
2024/02/24 19:21:14;;;;;;;4.60;3.00;;;;;;;;;;5003261;28;20952;-76
2024/02/24 19:23:40;;;;;;;6.07;3.20;;;;;;;;;;4995851;28;20461;-76
2024/02/24 19:26:08;;;;;;;5.60;3.70;;;;;;;;;;5005338;28;20484;-76
2024/02/24 19:28:34;;;;;;;7.80;3.83;;;;;;;;;;5002935;28;20426;-76
2024/02/24 19:31:01;;;;;;;8.97;3.53;;;;;;;;;;5004077;28;20422;-76
2024/02/24 19:33:28;;;;;;;6.67;3.77;;;;;;;;;;5003292;28;20524;-76
2024/02/24 19:35:54;;;;;;;4.43;2.77;;;;;;;;;;5004157;28;20455;-76
2024/02/24 19:38:20;;;;;;;3.93;3.07;;;;;;;;;;4995902;28;20464;-76
2024/02/24 19:40:47;;;;;;;3.03;2.80;;;;;;;;;;5001550;28;20845;-76
2024/02/24 19:43:13;;;;;;;4.50;3.30;;;;;;;;;;5009219;28;20442;-76
2024/02/24 19:45:41;;;;;;;5.33;3.50;;;;;;;;;;5001881;28;20452;-77
2024/02/24 19:48:07;;;;;;;11.70;2.77;;;;;;;;;;4995822;28;20815;-76
2024/02/24 19:50:33;;;;;;;6.70;3.60;;;;;;;;;;5000349;28;20838;-76
2024/02/24 19:52:59;;;;;;;5.87;3.40;;;;;;;;;;4995302;28;20981;-78
2024/02/24 19:55:25;;;;;;;7.13;3.80;;;;;;;;;;4994223;28;20478;-76
2024/02/24 19:57:51;;;;;;;10.37;4.53;;;;;;;;;;4996265;28;20418;-76
2024/02/24 20:00:17;;;;;;;4.33;3.00;;;;;;;;;;5000053;28;20530;-76
2024/02/24 20:02:43;;;;;;;2.93;2.77;;;;;;;;;;5001544;28;20474;-76
2024/02/24 20:05:09;;;;;;;5.80;2.60;;;;;;;;;;4993566;28;20479;-76
2024/02/24 20:07:36;;;;;;;4.03;3.13;;;;;;;;;;5003904;28;20501;-76
2024/02/24 20:10:02;;;;;;;5.10;2.83;;;;;;;;;;4995470;28;20478;-76
2024/02/24 20:12:28;;;;;;;4.20;2.97;;;;;;;;;;4994912;28;20467;-76
2024/02/24 20:14:54;;;;;;;5.90;3.67;;;;;;;;;;5003479;28;20434;-76
2024/02/24 20:17:20;;;;;;;4.03;2.97;;;;;;;;;;4996534;28;20862;-76
2024/02/24 20:19:46;;;;;;;5.63;3.70;;;;;;;;;;4995436;28;20487;-76
2024/02/24 20:22:15;;;;;;;4.20;3.10;;;;;;;;;;5008611;28;20422;-76
2024/02/24 20:24:41;;;;;;;6.23;3.20;;;;;;;;;;5002905;28;20944;-76
2024/02/24 20:27:09;;;;;;;13.17;3.40;;;;;;;;;;5003204;28;20423;-76
2024/02/24 20:29:36;;;;;;;5.93;3.33;;;;;;;;;;4994544;28;20510;-76
2024/02/24 20:32:01;;;;;;;6.53;3.30;;;;;;;;;;5002444;28;20557;-75
2024/02/24 20:34:27;;;;;;;5.00;3.20;;;;;;;;;;4995936;28;20423;-76
2024/02/24 20:36:53;;;;;;;7.03;3.27;;;;;;;;;;5002524;28;20435;-75
2024/02/24 20:39:20;;;;;;;4.13;3.17;;;;;;;;;;5004686;28;20442;-76